CST,Max TemperatureF,Mean TemperatureF,Min TemperatureF,Max Dew PointF,MeanDew PointF,Min DewpointF,Max Humidity, Mean Humidity, Min Humidity, Max Sea Level PressureIn, Mean Sea Level PressureIn, Min Sea Level PressureIn, Max VisibilityMiles, Mean VisibilityMiles, Min VisibilityMiles, Max Wind SpeedMPH, Mean Wind SpeedMPH, Max Gust SpeedMPH,PrecipitationIn, CloudCover, Events, WindDirDegrees
2013-1-1,19,2,-16,12,-5,-26,79,72,64,30.19,30.07,29.92,10,8,2,7,2,,0.00,5,Snow,197
2013-1-2,21,20,17,16,14,12,86,76,68,30.04,29.91,29.85,10,6,2,10,6,,0.00,8,Snow,207
2013-1-3,17,14,10,12,6,1,79,70,53,30.17,30.07,29.89,10,9,2,13,7,16,0.00,3,Snow,257
2013-1-4,35,20,6,18,10,0,80,68,48,30.06,29.98,29.88,10,10,10,8,4,,0.00,0,,253
2013-1-5,24,12,1,18,7,-6,80,74,68,30.03,29.92,29.82,10,9,5,12,1,16,0.00,3,,328
2013-1-6,21,10,0,9,3,-8,79,65,46,30.15,30.06,29.86,10,10,10,12,4,17,0.00,0,,211
2013-1-7,39,27,14,21,17,9,80,66,49,29.89,29.79,29.72,10,10,10,12,8,21,0.00,0,,216
2013-1-8,35,19,3,23,13,-4,86,73,56,29.90,29.80,29.67,10,10,2,10,2,16,0.00,3,,174
2013-1-9,33,28,23,23,17,14,75,63,51,30.26,30.05,29.74,10,10,10,17,9,29,0.00,3,,235
2013-1-10,42,33,24,27,21,16,75,61,34,30.19,29.99,29.66,10,9,3,16,11,24,0.10,3,,158
2013-1-11,35,34,33,30,29,27,81,81,75,29.65,29.45,29.28,10,3,0,12,6,,0.19,8,Rain,159
2013-1-12,35,20,5,30,9,-2,81,72,62,30.02,29.70,29.27,10,7,1,16,7,23,0.01,8,Rain-Snow,267
2013-1-13,10,4,-2,0,-4,-9,72,68,57,30.12,30.05,29.99,10,10,5,7,2,,0.00,2,Snow,275
2013-1-14,12,6,0,1,-3,-8,72,65,53,30.30,30.23,30.13,10,10,7,9,4,,0.00,4,Snow,224
2013-1-15,24,14,3,10,5,-2,78,64,43,30.17,29.99,29.63,10,9,3,16,7,24,0.00,4,Snow,193
2013-1-16,28,16,3,23,5,-13,80,56,30,30.21,29.80,29.52,10,9,2,17,10,25,0.00,4,Snow,293
2013-1-17,12,5,-2,-2,-6,-11,78,61,51,30.31,30.27,30.21,10,9,2,8,2,,0.00,4,Snow,275
2013-1-18,24,14,5,16,11,-2,80,74,67,30.18,29.83,29.68,10,9,2,10,3,,0.00,7,Snow,128
2013-1-19,32,16,0,23,7,-9,86,68,44,30.15,29.78,29.60,10,8,3,21,6,33,0.00,4,Snow,281
2013-1-20,3,-4,-11,-8,-14,-18,71,63,51,30.30,30.22,30.15,10,8,2,9,5,,0.00,3,Snow,274
2013-1-21,-5,-12,-18,-20,-24,-26,70,54,38,30.23,30.20,30.17,10,10,5,10,5,16,0.00,0,,274
2013-1-22,0,-10,-20,-11,-20,-29,70,58,46,30.28,30.22,30.14,10,10,10,9,2,,0.00,1,,232
2013-1-23,8,-2,-14,-2,-13,-26,78,56,36,30.57,30.25,30.06,10,9,2,17,6,26,0.00,4,Snow,304
2013-1-24,6,-5,-16,-4,-17,-26,70,56,47,30.60,30.41,30.06,10,10,10,15,4,18,0.00,3,Snow,145
2013-1-25,15,6,-2,7,-1,-11,79,65,53,30.27,30.01,29.82,10,8,2,14,8,20,0.00,5,Snow,268
2013-1-26,15,3,-9,5,-6,-17,77,63,49,30.28,30.19,30.07,10,10,10,13,2,,0.00,3,,141
2013-1-27,32,20,8,25,14,1,80,66,51,30.06,29.91,29.79,10,9,2,10,3,,0.01,4,Snow,118
2013-1-28,32,29,26,27,24,21,86,80,74,29.83,29.78,29.64,5,3,1,12,2,18,0.05,8,Snow,145
2013-1-29,32,28,23,27,23,16,86,77,69,29.76,29.63,29.52,10,8,2,12,4,22,0.07,8,Snow,328
2013-1-30,23,14,5,16,4,-4,80,68,62,29.74,29.68,29.64,10,9,3,15,9,22,0.00,8,Snow,317
2013-1-31,5,-4,-13,-4,-13,-24,72,58,49,30.17,29.95,29.70,10,8,2,14,8,21,0.00,2,Snow,297